sensor_id;sensor_type;location;lat;lon;timestamp;P1;durP1;ratioP1;P2;durP2;ratioP2
10653;SDS011;5375;51.250;6.776;2023-04-19T00:01:10;3.80;;;3.33;;
10653;SDS011;5375;51.250;6.776;2023-04-19T00:03:36;4.70;;;3.43;;
10653;SDS011;5375;51.250;6.776;2023-04-19T00:06:02;3.10;;;2.83;;
10653;SDS011;5375;51.250;6.776;2023-04-19T00:08:27;3.43;;;3.13;;
10653;SDS011;5375;51.250;6.776;2023-04-19T00:10:53;4.13;;;3.30;;
10653;SDS011;5375;51.250;6.776;2023-04-19T00:13:29;3.73;;;3.30;;
10653;SDS011;5375;51.250;6.776;2023-04-19T00:15:57;3.70;;;3.20;;
10653;SDS011;5375;51.250;6.776;2023-04-19T00:18:22;3.50;;;3.20;;
10653;SDS011;5375;51.250;6.776;2023-04-19T00:20:48;3.27;;;2.90;;
10653;SDS011;5375;51.250;6.776;2023-04-19T00:23:22;3.13;;;2.83;;
10653;SDS011;5375;51.250;6.776;2023-04-19T00:25:48;3.47;;;3.17;;
10653;SDS011;5375;51.250;6.776;2023-04-19T00:28:14;3.57;;;3.20;;
10653;SDS011;5375;51.250;6.776;2023-04-19T00:30:40;3.13;;;2.83;;
10653;SDS011;5375;51.250;6.776;2023-04-19T00:33:08;3.67;;;3.20;;
10653;SDS011;5375;51.250;6.776;2023-04-19T00:35:40;3.50;;;3.20;;
10653;SDS011;5375;51.250;6.776;2023-04-19T00:38:11;3.60;;;3.10;;
10653;SDS011;5375;51.250;6.776;2023-04-19T00:40:37;3.23;;;2.93;;
10653;SDS011;5375;51.250;6.776;2023-04-19T00:43:04;3.00;;;2.70;;
10653;SDS011;5375;51.250;6.776;2023-04-19T00:45:37;3.47;;;3.17;;
10653;SDS011;5375;51.250;6.776;2023-04-19T00:48:08;3.90;;;3.27;;
10653;SDS011;5375;51.250;6.776;2023-04-19T00:50:41;3.80;;;2.97;;
10653;SDS011;5375;51.250;6.776;2023-04-19T00:53:10;3.43;;;3.00;;
10653;SDS011;5375;51.250;6.776;2023-04-19T00:55:37;3.20;;;2.90;;
10653;SDS011;5375;51.250;6.776;2023-04-19T00:58:14;3.30;;;3.00;;
10653;SDS011;5375;51.250;6.776;2023-04-19T01:00:46;4.43;;;3.20;;
10653;SDS011;5375;51.250;6.776;2023-04-19T01:03:26;4.00;;;3.50;;
10653;SDS011;5375;51.250;6.776;2023-04-19T01:06:14;3.57;;;3.27;;
10653;SDS011;5375;51.250;6.776;2023-04-19T01:08:40;3.80;;;3.27;;
10653;SDS011;5375;51.250;6.776;2023-04-19T01:11:06;3.57;;;3.27;;
10653;SDS011;5375;51.250;6.776;2023-04-19T01:13:36;3.70;;;3.20;;
10653;SDS011;5375;51.250;6.776;2023-04-19T01:16:02;3.83;;;3.23;;
10653;SDS011;5375;51.250;6.776;2023-04-19T01:18:28;3.20;;;2.90;;
10653;SDS011;5375;51.250;6.776;2023-04-19T01:20:57;3.87;;;3.50;;
10653;SDS011;5375;51.250;6.776;2023-04-19T01:23:24;3.07;;;2.77;;
10653;SDS011;5375;51.250;6.776;2023-04-19T01:25:50;3.33;;;3.03;;
10653;SDS011;5375;51.250;6.776;2023-04-19T01:28:16;3.20;;;2.90;;
10653;SDS011;5375;51.250;6.776;2023-04-19T01:30:44;3.57;;;3.27;;
10653;SDS011;5375;51.250;6.776;2023-04-19T01:33:09;3.53;;;3.20;;
10653;SDS011;5375;51.250;6.776;2023-04-19T01:35:35;3.70;;;3.40;;
10653;SDS011;5375;51.250;6.776;2023-04-19T01:38:01;3.80;;;2.90;;
10653;SDS011;5375;51.250;6.776;2023-04-19T01:40:26;3.50;;;3.03;;
10653;SDS011;5375;51.250;6.776;2023-04-19T01:42:52;3.37;;;3.07;;
10653;SDS011;5375;51.250;6.776;2023-04-19T01:45:18;4.57;;;3.37;;
10653;SDS011;5375;51.250;6.776;2023-04-19T01:47:44;3.53;;;2.90;;
10653;SDS011;5375;51.250;6.776;2023-04-19T01:50:10;3.30;;;3.00;;
10653;SDS011;5375;51.250;6.776;2023-04-19T01:52:35;4.70;;;3.70;;
10653;SDS011;5375;51.250;6.776;2023-04-19T01:55:01;4.40;;;3.50;;
10653;SDS011;5375;51.250;6.776;2023-04-19T01:57:26;3.50;;;3.20;;
10653;SDS011;5375;51.250;6.776;2023-04-19T01:59:52;3.80;;;3.40;;
10653;SDS011;5375;51.250;6.776;2023-04-19T02:02:18;3.90;;;3.30;;
10653;SDS011;5375;51.250;6.776;2023-04-19T02:04:44;4.80;;;3.10;;
10653;SDS011;5375;51.250;6.776;2023-04-19T02:07:09;3.33;;;2.87;;
10653;SDS011;5375;51.250;6.776;2023-04-19T02:09:36;3.97;;;3.20;;
10653;SDS011;5375;51.250;6.776;2023-04-19T02:12:03;4.00;;;3.40;;
10653;SDS011;5375;51.250;6.776;2023-04-19T02:14:31;8.67;;;3.50;;
10653;SDS011;5375;51.250;6.776;2023-04-19T02:16:57;6.37;;;3.47;;
10653;SDS011;5375;51.250;6.776;2023-04-19T02:19:22;3.77;;;3.47;;
10653;SDS011;5375;51.250;6.776;2023-04-19T02:21:48;7.30;;;3.37;;
10653;SDS011;5375;51.250;6.776;2023-04-19T02:24:14;4.97;;;3.77;;
10653;SDS011;5375;51.250;6.776;2023-04-19T02:26:46;6.07;;;3.30;;
10653;SDS011;5375;51.250;6.776;2023-04-19T02:29:12;4.40;;;3.30;;
10653;SDS011;5375;51.250;6.776;2023-04-19T02:31:37;6.20;;;3.40;;
10653;SDS011;5375;51.250;6.776;2023-04-19T02:34:03;5.87;;;3.27;;
10653;SDS011;5375;51.250;6.776;2023-04-19T02:36:28;7.90;;;3.87;;
10653;SDS011;5375;51.250;6.776;2023-04-19T02:38:54;6.70;;;3.27;;
10653;SDS011;5375;51.250;6.776;2023-04-19T02:41:20;4.30;;;3.33;;
10653;SDS011;5375;51.250;6.776;2023-04-19T02:43:45;5.63;;;3.27;;
10653;SDS011;5375;51.250;6.776;2023-04-19T02:46:11;5.60;;;3.30;;
10653;SDS011;5375;51.250;6.776;2023-04-19T02:48:37;3.90;;;3.33;;
10653;SDS011;5375;51.250;6.776;2023-04-19T02:51:02;3.87;;;3.33;;
10653;SDS011;5375;51.250;6.776;2023-04-19T02:53:28;3.40;;;3.10;;
10653;SDS011;5375;51.250;6.776;2023-04-19T02:55:54;3.87;;;3.47;;
10653;SDS011;5375;51.250;6.776;2023-04-19T02:58:20;3.57;;;3.27;;
10653;SDS011;5375;51.250;6.776;2023-04-19T03:00:46;3.73;;;3.33;;
10653;SDS011;5375;51.250;6.776;2023-04-19T03:03:12;5.13;;;3.57;;
10653;SDS011;5375;51.250;6.776;2023-04-19T03:05:37;3.80;;;3.40;;
10653;SDS011;5375;51.250;6.776;2023-04-19T03:08:03;4.20;;;3.23;;
10653;SDS011;5375;51.250;6.776;2023-04-19T03:10:29;4.63;;;3.23;;
10653;SDS011;5375;51.250;6.776;2023-04-19T03:13:13;4.77;;;3.37;;
10653;SDS011;5375;51.250;6.776;2023-04-19T03:15:39;3.60;;;3.30;;
10653;SDS011;5375;51.250;6.776;2023-04-19T03:18:05;5.67;;;3.33;;
10653;SDS011;5375;51.250;6.776;2023-04-19T03:20:52;5.67;;;3.43;;
10653;SDS011;5375;51.250;6.776;2023-04-19T03:23:23;4.43;;;3.43;;
10653;SDS011;5375;51.250;6.776;2023-04-19T03:25:49;4.03;;;3.43;;
10653;SDS011;5375;51.250;6.776;2023-04-19T03:28:15;7.60;;;3.50;;
10653;SDS011;5375;51.250;6.776;2023-04-19T03:30:47;6.60;;;3.63;;
10653;SDS011;5375;51.250;6.776;2023-04-19T03:33:14;5.13;;;3.80;;
10653;SDS011;5375;51.250;6.776;2023-04-19T03:35:42;5.40;;;4.27;;
10653;SDS011;5375;51.250;6.776;2023-04-19T03:38:08;3.80;;;3.23;;
10653;SDS011;5375;51.250;6.776;2023-04-19T03:40:35;7.03;;;3.63;;
10653;SDS011;5375;51.250;6.776;2023-04-19T03:43:03;5.30;;;3.33;;
10653;SDS011;5375;51.250;6.776;2023-04-19T03:45:29;5.87;;;3.63;;
10653;SDS011;5375;51.250;6.776;2023-04-19T03:47:54;4.20;;;3.47;;
10653;SDS011;5375;51.250;6.776;2023-04-19T03:50:20;4.03;;;3.50;;
10653;SDS011;5375;51.250;6.776;2023-04-19T03:52:46;6.67;;;3.50;;
10653;SDS011;5375;51.250;6.776;2023-04-19T03:55:11;5.87;;;3.50;;
10653;SDS011;5375;51.250;6.776;2023-04-19T03:57:38;3.53;;;3.20;;
10653;SDS011;5375;51.250;6.776;2023-04-19T04:00:04;4.30;;;3.17;;
10653;SDS011;5375;51.250;6.776;2023-04-19T04:02:32;4.70;;;3.30;;
10653;SDS011;5375;51.250;6.776;2023-04-19T04:05:06;5.23;;;3.57;;
10653;SDS011;5375;51.250;6.776;2023-04-19T04:07:32;6.93;;;3.77;;
10653;SDS011;5375;51.250;6.776;2023-04-19T04:09:58;5.00;;;3.23;;
10653;SDS011;5375;51.250;6.776;2023-04-19T04:12:28;5.17;;;3.47;;
10653;SDS011;5375;51.250;6.776;2023-04-19T04:14:55;3.70;;;3.17;;
10653;SDS011;5375;51.250;6.776;2023-04-19T04:17:20;5.43;;;3.23;;
10653;SDS011;5375;51.250;6.776;2023-04-19T04:20:02;4.80;;;3.20;;
10653;SDS011;5375;51.250;6.776;2023-04-19T04:22:29;5.30;;;3.40;;
10653;SDS011;5375;51.250;6.776;2023-04-19T04:24:57;3.63;;;3.20;;
10653;SDS011;5375;51.250;6.776;2023-04-19T04:27:23;5.43;;;3.80;;
10653;SDS011;5375;51.250;6.776;2023-04-19T04:29:48;5.50;;;3.23;;
10653;SDS011;5375;51.250;6.776;2023-04-19T04:32:14;4.67;;;3.57;;
10653;SDS011;5375;51.250;6.776;2023-04-19T04:34:42;5.07;;;3.60;;
10653;SDS011;5375;51.250;6.776;2023-04-19T04:37:08;5.10;;;3.37;;
10653;SDS011;5375;51.250;6.776;2023-04-19T04:39:35;5.43;;;3.43;;
10653;SDS011;5375;51.250;6.776;2023-04-19T04:42:03;3.30;;;2.97;;
10653;SDS011;5375;51.250;6.776;2023-04-19T04:44:33;4.73;;;3.73;;
10653;SDS011;5375;51.250;6.776;2023-04-19T04:46:59;5.47;;;3.40;;
10653;SDS011;5375;51.250;6.776;2023-04-19T04:49:25;4.83;;;3.30;;
10653;SDS011;5375;51.250;6.776;2023-04-19T04:51:50;5.00;;;3.20;;
10653;SDS011;5375;51.250;6.776;2023-04-19T04:54:16;6.00;;;3.67;;
10653;SDS011;5375;51.250;6.776;2023-04-19T04:56:42;5.87;;;3.23;;
10653;SDS011;5375;51.250;6.776;2023-04-19T04:59:07;4.53;;;3.27;;
10653;SDS011;5375;51.250;6.776;2023-04-19T05:01:33;5.97;;;3.30;;
10653;SDS011;5375;51.250;6.776;2023-04-19T05:03:59;4.60;;;2.90;;
10653;SDS011;5375;51.250;6.776;2023-04-19T05:06:25;5.10;;;3.30;;
10653;SDS011;5375;51.250;6.776;2023-04-19T05:08:51;6.20;;;3.03;;
10653;SDS011;5375;51.250;6.776;2023-04-19T05:11:16;5.40;;;3.40;;
10653;SDS011;5375;51.250;6.776;2023-04-19T05:13:43;4.03;;;2.97;;
10653;SDS011;5375;51.250;6.776;2023-04-19T05:16:09;5.90;;;3.03;;
10653;SDS011;5375;51.250;6.776;2023-04-19T05:18:35;4.53;;;3.10;;
10653;SDS011;5375;51.250;6.776;2023-04-19T05:21:20;3.67;;;3.10;;
10653;SDS011;5375;51.250;6.776;2023-04-19T05:23:46;4.10;;;3.10;;
10653;SDS011;5375;51.250;6.776;2023-04-19T05:26:13;3.33;;;3.03;;
10653;SDS011;5375;51.250;6.776;2023-04-19T05:28:39;4.50;;;2.73;;
10653;SDS011;5375;51.250;6.776;2023-04-19T05:31:09;5.27;;;3.13;;
10653;SDS011;5375;51.250;6.776;2023-04-19T05:33:35;4.73;;;2.70;;
10653;SDS011;5375;51.250;6.776;2023-04-19T05:36:00;5.20;;;3.20;;
10653;SDS011;5375;51.250;6.776;2023-04-19T05:38:26;3.67;;;3.23;;
10653;SDS011;5375;51.250;6.776;2023-04-19T05:40:52;3.30;;;2.47;;
10653;SDS011;5375;51.250;6.776;2023-04-19T05:43:20;3.73;;;2.60;;
10653;SDS011;5375;51.250;6.776;2023-04-19T05:45:46;4.20;;;2.70;;
10653;SDS011;5375;51.250;6.776;2023-04-19T05:48:16;4.70;;;2.87;;
10653;SDS011;5375;51.250;6.776;2023-04-19T05:50:41;3.47;;;2.93;;
10653;SDS011;5375;51.250;6.776;2023-04-19T05:53:07;3.47;;;2.63;;
10653;SDS011;5375;51.250;6.776;2023-04-19T05:55:33;3.00;;;2.50;;
10653;SDS011;5375;51.250;6.776;2023-04-19T05:57:58;3.17;;;2.83;;
10653;SDS011;5375;51.250;6.776;2023-04-19T06:00:24;3.90;;;2.80;;
10653;SDS011;5375;51.250;6.776;2023-04-19T06:02:50;3.97;;;2.73;;
10653;SDS011;5375;51.250;6.776;2023-04-19T06:05:15;3.90;;;2.50;;
10653;SDS011;5375;51.250;6.776;2023-04-19T06:07:41;4.67;;;2.87;;
10653;SDS011;5375;51.250;6.776;2023-04-19T06:10:07;3.93;;;2.90;;
10653;SDS011;5375;51.250;6.776;2023-04-19T06:12:38;3.87;;;2.90;;
10653;SDS011;5375;51.250;6.776;2023-04-19T06:15:06;3.20;;;2.70;;
10653;SDS011;5375;51.250;6.776;2023-04-19T06:17:32;3.97;;;2.80;;
10653;SDS011;5375;51.250;6.776;2023-04-19T06:19:58;3.07;;;2.40;;
10653;SDS011;5375;51.250;6.776;2023-04-19T06:22:24;2.87;;;2.60;;
10653;SDS011;5375;51.250;6.776;2023-04-19T06:24:49;4.27;;;2.90;;
10653;SDS011;5375;51.250;6.776;2023-04-19T06:27:15;2.93;;;2.50;;
10653;SDS011;5375;51.250;6.776;2023-04-19T06:29:41;3.63;;;2.70;;
10653;SDS011;5375;51.250;6.776;2023-04-19T06:32:09;2.63;;;2.40;;
10653;SDS011;5375;51.250;6.776;2023-04-19T06:34:35;2.53;;;2.20;;
10653;SDS011;5375;51.250;6.776;2023-04-19T06:37:00;3.53;;;2.70;;
10653;SDS011;5375;51.250;6.776;2023-04-19T06:39:26;3.23;;;2.53;;
10653;SDS011;5375;51.250;6.776;2023-04-19T06:41:52;3.00;;;2.60;;
10653;SDS011;5375;51.250;6.776;2023-04-19T06:44:17;2.90;;;2.60;;
10653;SDS011;5375;51.250;6.776;2023-04-19T06:46:43;3.87;;;2.67;;
10653;SDS011;5375;51.250;6.776;2023-04-19T06:49:09;2.70;;;2.50;;
10653;SDS011;5375;51.250;6.776;2023-04-19T06:51:35;3.93;;;2.73;;
10653;SDS011;5375;51.250;6.776;2023-04-19T06:54:01;3.70;;;2.70;;
10653;SDS011;5375;51.250;6.776;2023-04-19T06:56:40;2.97;;;2.30;;
10653;SDS011;5375;51.250;6.776;2023-04-19T06:59:09;2.93;;;2.60;;
10653;SDS011;5375;51.250;6.776;2023-04-19T07:01:39;6.43;;;2.70;;
10653;SDS011;5375;51.250;6.776;2023-04-19T07:04:06;4.10;;;2.40;;
10653;SDS011;5375;51.250;6.776;2023-04-19T07:06:32;2.97;;;2.50;;
10653;SDS011;5375;51.250;6.776;2023-04-19T07:09:01;3.70;;;2.47;;
10653;SDS011;5375;51.250;6.776;2023-04-19T07:11:28;12.73;;;2.20;;
10653;SDS011;5375;51.250;6.776;2023-04-19T07:13:56;2.60;;;2.40;;
10653;SDS011;5375;51.250;6.776;2023-04-19T07:16:23;3.07;;;2.60;;
10653;SDS011;5375;51.250;6.776;2023-04-19T07:18:49;2.40;;;2.20;;
10653;SDS011;5375;51.250;6.776;2023-04-19T07:21:15;2.70;;;2.23;;
10653;SDS011;5375;51.250;6.776;2023-04-19T07:23:55;3.57;;;2.67;;
10653;SDS011;5375;51.250;6.776;2023-04-19T07:26:21;3.13;;;2.33;;
10653;SDS011;5375;51.250;6.776;2023-04-19T07:28:48;4.70;;;2.13;;
10653;SDS011;5375;51.250;6.776;2023-04-19T07:31:14;3.50;;;2.57;;
10653;SDS011;5375;51.250;6.776;2023-04-19T07:33:41;3.03;;;2.50;;
10653;SDS011;5375;51.250;6.776;2023-04-19T07:36:08;3.20;;;2.40;;
10653;SDS011;5375;51.250;6.776;2023-04-19T07:38:35;3.13;;;2.40;;
10653;SDS011;5375;51.250;6.776;2023-04-19T07:41:01;3.30;;;2.40;;
10653;SDS011;5375;51.250;6.776;2023-04-19T07:43:31;3.17;;;2.50;;
10653;SDS011;5375;51.250;6.776;2023-04-19T07:45:56;2.47;;;2.07;;
10653;SDS011;5375;51.250;6.776;2023-04-19T07:48:22;2.90;;;2.30;;
10653;SDS011;5375;51.250;6.776;2023-04-19T07:50:49;2.57;;;2.13;;
10653;SDS011;5375;51.250;6.776;2023-04-19T07:53:15;3.43;;;2.30;;
10653;SDS011;5375;51.250;6.776;2023-04-19T07:55:40;2.70;;;2.27;;
10653;SDS011;5375;51.250;6.776;2023-04-19T07:58:06;2.53;;;2.30;;
10653;SDS011;5375;51.250;6.776;2023-04-19T08:00:32;3.50;;;2.20;;
10653;SDS011;5375;51.250;6.776;2023-04-19T08:03:00;3.07;;;2.20;;
10653;SDS011;5375;51.250;6.776;2023-04-19T08:05:27;2.83;;;2.10;;
10653;SDS011;5375;51.250;6.776;2023-04-19T08:07:53;2.87;;;2.20;;
10653;SDS011;5375;51.250;6.776;2023-04-19T08:10:21;3.37;;;2.50;;
10653;SDS011;5375;51.250;6.776;2023-04-19T08:12:47;3.13;;;2.43;;
10653;SDS011;5375;51.250;6.776;2023-04-19T08:15:14;3.10;;;2.40;;
10653;SDS011;5375;51.250;6.776;2023-04-19T08:17:40;2.27;;;2.07;;
10653;SDS011;5375;51.250;6.776;2023-04-19T08:20:09;4.07;;;2.40;;
10653;SDS011;5375;51.250;6.776;2023-04-19T08:22:36;2.33;;;2.13;;
10653;SDS011;5375;51.250;6.776;2023-04-19T08:25:03;2.97;;;2.20;;
10653;SDS011;5375;51.250;6.776;2023-04-19T08:27:31;3.03;;;2.20;;
10653;SDS011;5375;51.250;6.776;2023-04-19T08:29:56;2.97;;;2.40;;
10653;SDS011;5375;51.250;6.776;2023-04-19T08:32:22;2.93;;;2.20;;
10653;SDS011;5375;51.250;6.776;2023-04-19T08:34:48;2.67;;;2.30;;
10653;SDS011;5375;51.250;6.776;2023-04-19T08:37:14;2.63;;;1.97;;
10653;SDS011;5375;51.250;6.776;2023-04-19T08:39:39;4.57;;;2.20;;
10653;SDS011;5375;51.250;6.776;2023-04-19T08:42:06;2.43;;;2.13;;
10653;SDS011;5375;51.250;6.776;2023-04-19T08:44:33;3.47;;;2.30;;
10653;SDS011;5375;51.250;6.776;2023-04-19T08:47:02;2.83;;;1.97;;
10653;SDS011;5375;51.250;6.776;2023-04-19T08:49:30;3.30;;;2.40;;
10653;SDS011;5375;51.250;6.776;2023-04-19T08:52:03;2.40;;;2.20;;
10653;SDS011;5375;51.250;6.776;2023-04-19T08:54:30;2.30;;;2.07;;
10653;SDS011;5375;51.250;6.776;2023-04-19T08:56:58;2.70;;;2.10;;
10653;SDS011;5375;51.250;6.776;2023-04-19T08:59:24;2.30;;;1.97;;
10653;SDS011;5375;51.250;6.776;2023-04-19T09:01:50;3.40;;;2.30;;
10653;SDS011;5375;51.250;6.776;2023-04-19T09:04:16;2.43;;;1.93;;
10653;SDS011;5375;51.250;6.776;2023-04-19T09:06:41;2.47;;;2.10;;
10653;SDS011;5375;51.250;6.776;2023-04-19T09:09:14;2.93;;;2.00;;
10653;SDS011;5375;51.250;6.776;2023-04-19T09:11:41;3.27;;;2.30;;
10653;SDS011;5375;51.250;6.776;2023-04-19T09:14:08;2.33;;;1.90;;
10653;SDS011;5375;51.250;6.776;2023-04-19T09:16:46;2.33;;;1.97;;
10653;SDS011;5375;51.250;6.776;2023-04-19T09:19:12;3.80;;;2.20;;
10653;SDS011;5375;51.250;6.776;2023-04-19T09:21:40;4.53;;;2.20;;
10653;SDS011;5375;51.250;6.776;2023-04-19T09:24:06;2.33;;;2.13;;
10653;SDS011;5375;51.250;6.776;2023-04-19T09:26:32;2.70;;;2.10;;
10653;SDS011;5375;51.250;6.776;2023-04-19T09:28:59;2.13;;;1.90;;
10653;SDS011;5375;51.250;6.776;2023-04-19T09:31:32;3.00;;;1.97;;
10653;SDS011;5375;51.250;6.776;2023-04-19T09:34:13;2.77;;;2.10;;
10653;SDS011;5375;51.250;6.776;2023-04-19T09:36:38;2.00;;;1.80;;
10653;SDS011;5375;51.250;6.776;2023-04-19T09:39:07;2.07;;;1.87;;
10653;SDS011;5375;51.250;6.776;2023-04-19T09:41:34;2.33;;;1.90;;
10653;SDS011;5375;51.250;6.776;2023-04-19T09:44:15;2.60;;;2.23;;
10653;SDS011;5375;51.250;6.776;2023-04-19T09:46:41;2.40;;;2.20;;
10653;SDS011;5375;51.250;6.776;2023-04-19T09:51:44;2.20;;;2.00;;
10653;SDS011;5375;51.250;6.776;2023-04-19T09:54:12;2.13;;;1.93;;
10653;SDS011;5375;51.250;6.776;2023-04-19T09:56:40;2.63;;;2.13;;
10653;SDS011;5375;51.250;6.776;2023-04-19T09:59:08;2.87;;;2.20;;
10653;SDS011;5375;51.250;6.776;2023-04-19T10:01:47;2.83;;;2.20;;
10653;SDS011;5375;51.250;6.776;2023-04-19T10:04:20;2.70;;;2.10;;
10653;SDS011;5375;51.250;6.776;2023-04-19T10:06:50;2.83;;;2.03;;
10653;SDS011;5375;51.250;6.776;2023-04-19T10:09:19;2.30;;;2.07;;
10653;SDS011;5375;51.250;6.776;2023-04-19T10:11:50;2.43;;;2.23;;
10653;SDS011;5375;51.250;6.776;2023-04-19T10:14:18;2.40;;;1.90;;
10653;SDS011;5375;51.250;6.776;2023-04-19T10:16:48;2.40;;;1.87;;
10653;SDS011;5375;51.250;6.776;2023-04-19T10:19:15;2.43;;;1.90;;
10653;SDS011;5375;51.250;6.776;2023-04-19T10:21:44;2.13;;;1.93;;
10653;SDS011;5375;51.250;6.776;2023-04-19T10:24:12;2.53;;;2.17;;
10653;SDS011;5375;51.250;6.776;2023-04-19T10:32:19;2.27;;;2.00;;
10653;SDS011;5375;51.250;6.776;2023-04-19T10:34:50;2.63;;;2.03;;
10653;SDS011;5375;51.250;6.776;2023-04-19T10:37:23;2.20;;;1.80;;
10653;SDS011;5375;51.250;6.776;2023-04-19T10:39:50;2.40;;;2.03;;
10653;SDS011;5375;51.250;6.776;2023-04-19T10:42:18;2.33;;;1.97;;
10653;SDS011;5375;51.250;6.776;2023-04-19T10:45:30;2.20;;;1.93;;
10653;SDS011;5375;51.250;6.776;2023-04-19T10:47:51;2.87;;;2.20;;
10653;SDS011;5375;51.250;6.776;2023-04-19T10:50:17;1.80;;;1.70;;
10653;SDS011;5375;51.250;6.776;2023-04-19T10:52:43;2.20;;;2.00;;
10653;SDS011;5375;51.250;6.776;2023-04-19T10:55:14;1.70;;;1.60;;
10653;SDS011;5375;51.250;6.776;2023-04-19T11:00:30;2.33;;;2.13;;
10653;SDS011;5375;51.250;6.776;2023-04-19T11:06:15;3.57;;;1.70;;
10653;SDS011;5375;51.250;6.776;2023-04-19T11:08:45;4.27;;;1.90;;
10653;SDS011;5375;51.250;6.776;2023-04-19T11:11:12;2.00;;;1.67;;
10653;SDS011;5375;51.250;6.776;2023-04-19T11:13:40;2.00;;;1.60;;
10653;SDS011;5375;51.250;6.776;2023-04-19T11:16:07;2.40;;;2.20;;
10653;SDS011;5375;51.250;6.776;2023-04-19T11:18:37;2.00;;;1.80;;
10653;SDS011;5375;51.250;6.776;2023-04-19T11:21:03;2.13;;;1.80;;
10653;SDS011;5375;51.250;6.776;2023-04-19T11:23:29;3.03;;;1.70;;
10653;SDS011;5375;51.250;6.776;2023-04-19T11:25:55;2.63;;;1.90;;
10653;SDS011;5375;51.250;6.776;2023-04-19T11:28:21;2.47;;;1.80;;
10653;SDS011;5375;51.250;6.776;2023-04-19T11:30:48;2.33;;;1.80;;
10653;SDS011;5375;51.250;6.776;2023-04-19T11:33:13;2.40;;;1.67;;
10653;SDS011;5375;51.250;6.776;2023-04-19T11:35:39;2.23;;;1.50;;
10653;SDS011;5375;51.250;6.776;2023-04-19T11:38:07;2.37;;;1.70;;
10653;SDS011;5375;51.250;6.776;2023-04-19T11:40:32;2.23;;;1.80;;
10653;SDS011;5375;51.250;6.776;2023-04-19T11:42:59;2.37;;;1.77;;
10653;SDS011;5375;51.250;6.776;2023-04-19T11:45:27;2.53;;;1.90;;
10653;SDS011;5375;51.250;6.776;2023-04-19T11:47:53;3.23;;;1.97;;
10653;SDS011;5375;51.250;6.776;2023-04-19T11:50:36;2.47;;;1.80;;
10653;SDS011;5375;51.250;6.776;2023-04-19T11:53:09;2.13;;;1.40;;
10653;SDS011;5375;51.250;6.776;2023-04-19T11:55:37;1.97;;;1.60;;
10653;SDS011;5375;51.250;6.776;2023-04-19T11:58:05;4.53;;;1.63;;
10653;SDS011;5375;51.250;6.776;2023-04-19T12:00:33;1.73;;;1.60;;
10653;SDS011;5375;51.250;6.776;2023-04-19T12:02:59;2.13;;;1.77;;
10653;SDS011;5375;51.250;6.776;2023-04-19T12:05:25;2.30;;;1.70;;
10653;SDS011;5375;51.250;6.776;2023-04-19T12:10:27;3.03;;;1.40;;
10653;SDS011;5375;51.250;6.776;2023-04-19T12:12:53;9.20;;;1.90;;
10653;SDS011;5375;51.250;6.776;2023-04-19T12:15:19;3.70;;;1.50;;
10653;SDS011;5375;51.250;6.776;2023-04-19T12:17:57;5.20;;;1.80;;
10653;SDS011;5375;51.250;6.776;2023-04-19T12:20:43;4.53;;;1.80;;
10653;SDS011;5375;51.250;6.776;2023-04-19T12:23:18;2.00;;;1.80;;
10653;SDS011;5375;51.250;6.776;2023-04-19T12:25:47;2.37;;;1.67;;
10653;SDS011;5375;51.250;6.776;2023-04-19T12:28:13;2.13;;;1.73;;
10653;SDS011;5375;51.250;6.776;2023-04-19T12:30:40;2.17;;;1.90;;
10653;SDS011;5375;51.250;6.776;2023-04-19T12:33:07;2.13;;;1.47;;
10653;SDS011;5375;51.250;6.776;2023-04-19T12:35:37;2.70;;;1.73;;
10653;SDS011;5375;51.250;6.776;2023-04-19T12:38:05;2.30;;;1.90;;
10653;SDS011;5375;51.250;6.776;2023-04-19T12:40:36;2.37;;;1.53;;
10653;SDS011;5375;51.250;6.776;2023-04-19T12:43:02;3.50;;;1.50;;
10653;SDS011;5375;51.250;6.776;2023-04-19T12:45:29;1.90;;;1.50;;
10653;SDS011;5375;51.250;6.776;2023-04-19T12:47:55;2.50;;;1.50;;
10653;SDS011;5375;51.250;6.776;2023-04-19T12:50:21;2.10;;;1.30;;
10653;SDS011;5375;51.250;6.776;2023-04-19T12:52:48;2.53;;;1.83;;
10653;SDS011;5375;51.250;6.776;2023-04-19T12:55:26;3.47;;;1.50;;
10653;SDS011;5375;51.250;6.776;2023-04-19T12:57:55;1.87;;;1.57;;
10653;SDS011;5375;51.250;6.776;2023-04-19T13:00:21;4.03;;;1.60;;
10653;SDS011;5375;51.250;6.776;2023-04-19T13:02:47;2.33;;;1.70;;
10653;SDS011;5375;51.250;6.776;2023-04-19T13:05:13;2.80;;;1.40;;
10653;SDS011;5375;51.250;6.776;2023-04-19T13:07:41;2.47;;;1.52;;
10653;SDS011;5375;51.250;6.776;2023-04-19T13:10:07;2.10;;;1.73;;
10653;SDS011;5375;51.250;6.776;2023-04-19T13:12:33;1.80;;;1.40;;
10653;SDS011;5375;51.250;6.776;2023-04-19T13:14:59;5.43;;;1.73;;
10653;SDS011;5375;51.250;6.776;2023-04-19T13:17:26;2.37;;;1.50;;
10653;SDS011;5375;51.250;6.776;2023-04-19T13:19:52;7.73;;;1.50;;
10653;SDS011;5375;51.250;6.776;2023-04-19T13:22:17;2.57;;;1.50;;
10653;SDS011;5375;51.250;6.776;2023-04-19T13:24:43;1.77;;;1.43;;
10653;SDS011;5375;51.250;6.776;2023-04-19T13:27:08;3.80;;;1.50;;
10653;SDS011;5375;51.250;6.776;2023-04-19T13:29:34;2.57;;;1.43;;
10653;SDS011;5375;51.250;6.776;2023-04-19T13:32:00;1.50;;;1.40;;
10653;SDS011;5375;51.250;6.776;2023-04-19T13:34:31;1.83;;;1.53;;
10653;SDS011;5375;51.250;6.776;2023-04-19T13:36:59;1.97;;;1.57;;
10653;SDS011;5375;51.250;6.776;2023-04-19T13:39:25;3.43;;;1.50;;
10653;SDS011;5375;51.250;6.776;2023-04-19T13:41:51;5.87;;;1.60;;
10653;SDS011;5375;51.250;6.776;2023-04-19T13:44:16;2.70;;;1.70;;
10653;SDS011;5375;51.250;6.776;2023-04-19T13:46:42;2.67;;;1.50;;
10653;SDS011;5375;51.250;6.776;2023-04-19T13:49:07;4.17;;;1.80;;
10653;SDS011;5375;51.250;6.776;2023-04-19T13:51:33;2.73;;;1.70;;
10653;SDS011;5375;51.250;6.776;2023-04-19T13:54:01;4.03;;;1.52;;
10653;SDS011;5375;51.250;6.776;2023-04-19T13:56:27;2.07;;;1.57;;
10653;SDS011;5375;51.250;6.776;2023-04-19T13:58:54;2.10;;;1.30;;
10653;SDS011;5375;51.250;6.776;2023-04-19T14:01:24;2.40;;;1.33;;
10653;SDS011;5375;51.250;6.776;2023-04-19T14:03:49;1.87;;;1.30;;
10653;SDS011;5375;51.250;6.776;2023-04-19T14:06:20;1.90;;;1.50;;
10653;SDS011;5375;51.250;6.776;2023-04-19T14:08:45;7.33;;;1.63;;
10653;SDS011;5375;51.250;6.776;2023-04-19T14:11:11;1.77;;;1.40;;
10653;SDS011;5375;51.250;6.776;2023-04-19T14:13:41;2.07;;;1.50;;
10653;SDS011;5375;51.250;6.776;2023-04-19T14:16:08;2.10;;;1.63;;
10653;SDS011;5375;51.250;6.776;2023-04-19T14:18:33;1.67;;;1.50;;
10653;SDS011;5375;51.250;6.776;2023-04-19T14:21:00;1.93;;;1.37;;
10653;SDS011;5375;51.250;6.776;2023-04-19T14:23:26;1.57;;;1.40;;
10653;SDS011;5375;51.250;6.776;2023-04-19T14:25:51;1.70;;;1.40;;
10653;SDS011;5375;51.250;6.776;2023-04-19T14:28:18;2.57;;;1.47;;
10653;SDS011;5375;51.250;6.776;2023-04-19T14:30:44;2.23;;;1.57;;
10653;SDS011;5375;51.250;6.776;2023-04-19T14:33:13;1.60;;;1.50;;
10653;SDS011;5375;51.250;6.776;2023-04-19T14:35:39;2.53;;;1.30;;
10653;SDS011;5375;51.250;6.776;2023-04-19T14:38:05;2.17;;;1.40;;
10653;SDS011;5375;51.250;6.776;2023-04-19T14:40:31;2.80;;;1.30;;
10653;SDS011;5375;51.250;6.776;2023-04-19T14:42:57;1.50;;;1.10;;
10653;SDS011;5375;51.250;6.776;2023-04-19T14:45:22;1.87;;;1.20;;
10653;SDS011;5375;51.250;6.776;2023-04-19T14:47:48;1.60;;;1.30;;
10653;SDS011;5375;51.250;6.776;2023-04-19T14:50:13;2.03;;;1.30;;
10653;SDS011;5375;51.250;6.776;2023-04-19T14:52:39;1.63;;;1.30;;
10653;SDS011;5375;51.250;6.776;2023-04-19T14:55:11;2.27;;;1.53;;
10653;SDS011;5375;51.250;6.776;2023-04-19T14:57:40;2.07;;;1.40;;
10653;SDS011;5375;51.250;6.776;2023-04-19T15:00:11;2.90;;;1.30;;
10653;SDS011;5375;51.250;6.776;2023-04-19T15:02:37;2.13;;;1.30;;
10653;SDS011;5375;51.250;6.776;2023-04-19T15:05:02;1.87;;;1.40;;
10653;SDS011;5375;51.250;6.776;2023-04-19T15:07:28;1.67;;;1.30;;
10653;SDS011;5375;51.250;6.776;2023-04-19T15:09:54;3.07;;;1.37;;
10653;SDS011;5375;51.250;6.776;2023-04-19T15:12:19;1.63;;;1.30;;
10653;SDS011;5375;51.250;6.776;2023-04-19T15:14:45;2.60;;;1.58;;
10653;SDS011;5375;51.250;6.776;2023-04-19T15:17:10;3.33;;;1.30;;
10653;SDS011;5375;51.250;6.776;2023-04-19T15:19:37;1.55;;;1.33;;